Terminal Aerodrome Forecast
Issued by NWS

Home | Current Version | Previous Version | Text Only | Print | Product List | Glossary On
Versions: 1 2 3 4 5 6 7 8 9 10 11 12 13 14 15 16 17 18 19
000
FTUS41 KBGM 232341
TAFELM
TAF
KELM 232341Z 2400/2424 23005KT P6SM BKN050
     FM240300 VRB03KT P6SM FEW025 BKN045
     FM240900 VRB03KT P6SM OVC015
      TEMPO 2409/2412 3SM -SHRA BR
     FM241400 19010G20KT P6SM BKN040=

USA.gov is the U.S. government's official web portal to all federal, state and local government web resources and services.